Providence, Illinois
Current Conditions -  °F | °C
As of 10:35 AM on Friday 24 Oct 2014 (Local Time) from KC75 Reporting Station
Haze Haze  
Wind Chill: 51°   Ceiling: 100
Heat Index: 51°   Visibility: 1.2mi
Dew Point: 51°   Wind: 0mph
Humidity: 97%   Direction: NA
Pressure: 30.08"   Gusts: NA
Location:  41.2776°N, 89.5099°W
Report Text: KC75 241535Z AUTO 00000KT 1 1/4SM BR OVC001 11/10 A3008 RMK AO2 T01080103
Loading
Personal Weather Stations






























Interactive Weather Map New forecast layout! Learn more

10-Day Weather Forecast

Advertisements
Track Severe Weather on mobile